sensor_id;sensor_type;location;lat;lon;timestamp;P1;durP1;ratioP1;P2;durP2;ratioP2
61764;SDS011;50188;48.114;-1.388;2022-08-25T00:02:14;1.52;;;1.40;;
61764;SDS011;50188;48.114;-1.388;2022-08-25T00:04:40;1.85;;;1.55;;
61764;SDS011;50188;48.114;-1.388;2022-08-25T00:07:08;3.40;;;1.77;;
61764;SDS011;50188;48.114;-1.388;2022-08-25T00:09:34;2.50;;;2.00;;
61764;SDS011;50188;48.114;-1.388;2022-08-25T00:12:00;3.10;;;2.10;;
61764;SDS011;50188;48.114;-1.388;2022-08-25T00:14:28;2.53;;;2.08;;
61764;SDS011;50188;48.114;-1.388;2022-08-25T00:17:07;2.10;;;1.90;;
61764;SDS011;50188;48.114;-1.388;2022-08-25T00:19:35;2.42;;;2.30;;
61764;SDS011;50188;48.114;-1.388;2022-08-25T00:22:04;3.75;;;2.55;;
61764;SDS011;50188;48.114;-1.388;2022-08-25T00:24:31;3.92;;;1.98;;
61764;SDS011;50188;48.114;-1.388;2022-08-25T00:26:58;4.88;;;2.10;;
61764;SDS011;50188;48.114;-1.388;2022-08-25T00:29:26;2.55;;;1.80;;
61764;SDS011;50188;48.114;-1.388;2022-08-25T00:31:53;3.05;;;1.70;;
61764;SDS011;50188;48.114;-1.388;2022-08-25T00:34:21;5.05;;;2.17;;
61764;SDS011;50188;48.114;-1.388;2022-08-25T00:36:48;1.80;;;1.70;;
61764;SDS011;50188;48.114;-1.388;2022-08-25T00:39:16;2.45;;;1.77;;
61764;SDS011;50188;48.114;-1.388;2022-08-25T00:41:45;4.65;;;2.78;;
61764;SDS011;50188;48.114;-1.388;2022-08-25T00:44:14;2.45;;;1.98;;
61764;SDS011;50188;48.114;-1.388;2022-08-25T00:46:46;5.05;;;2.08;;
61764;SDS011;50188;48.114;-1.388;2022-08-25T00:49:18;2.83;;;1.75;;
61764;SDS011;50188;48.114;-1.388;2022-08-25T00:51:49;3.67;;;2.60;;
61764;SDS011;50188;48.114;-1.388;2022-08-25T00:54:21;3.80;;;2.08;;
61764;SDS011;50188;48.114;-1.388;2022-08-25T00:56:51;3.28;;;2.20;;
61764;SDS011;50188;48.114;-1.388;2022-08-25T00:59:18;5.85;;;2.70;;
61764;SDS011;50188;48.114;-1.388;2022-08-25T01:01:46;2.90;;;2.23;;
61764;SDS011;50188;48.114;-1.388;2022-08-25T01:04:13;5.28;;;3.00;;
61764;SDS011;50188;48.114;-1.388;2022-08-25T01:06:40;4.70;;;2.35;;
61764;SDS011;50188;48.114;-1.388;2022-08-25T01:09:11;2.53;;;2.13;;
61764;SDS011;50188;48.114;-1.388;2022-08-25T01:11:38;7.10;;;3.10;;
61764;SDS011;50188;48.114;-1.388;2022-08-25T01:14:04;2.28;;;2.08;;
61764;SDS011;50188;48.114;-1.388;2022-08-25T01:16:35;4.85;;;2.58;;
61764;SDS011;50188;48.114;-1.388;2022-08-25T01:19:03;5.20;;;2.60;;
61764;SDS011;50188;48.114;-1.388;2022-08-25T01:21:36;4.68;;;3.47;;
61764;SDS011;50188;48.114;-1.388;2022-08-25T01:24:19;3.10;;;2.53;;
61764;SDS011;50188;48.114;-1.388;2022-08-25T01:26:59;6.85;;;3.42;;
61764;SDS011;50188;48.114;-1.388;2022-08-25T01:29:25;4.38;;;4.07;;
61764;SDS011;50188;48.114;-1.388;2022-08-25T01:31:53;8.63;;;4.13;;
61764;SDS011;50188;48.114;-1.388;2022-08-25T01:34:22;5.80;;;3.65;;
61764;SDS011;50188;48.114;-1.388;2022-08-25T01:36:58;9.38;;;5.88;;
61764;SDS011;50188;48.114;-1.388;2022-08-25T01:39:25;8.95;;;4.55;;
61764;SDS011;50188;48.114;-1.388;2022-08-25T01:44:58;8.38;;;5.63;;
61764;SDS011;50188;48.114;-1.388;2022-08-25T01:47:24;7.25;;;5.30;;
61764;SDS011;50188;48.114;-1.388;2022-08-25T01:49:50;6.50;;;5.38;;
61764;SDS011;50188;48.114;-1.388;2022-08-25T01:52:19;12.13;;;5.55;;
61764;SDS011;50188;48.114;-1.388;2022-08-25T01:54:48;5.72;;;5.03;;
61764;SDS011;50188;48.114;-1.388;2022-08-25T01:57:14;6.63;;;5.95;;
61764;SDS011;50188;48.114;-1.388;2022-08-25T01:59:39;7.80;;;5.45;;
61764;SDS011;50188;48.114;-1.388;2022-08-25T02:02:05;7.57;;;6.15;;
61764;SDS011;50188;48.114;-1.388;2022-08-25T02:04:32;11.00;;;7.50;;
61764;SDS011;50188;48.114;-1.388;2022-08-25T02:06:58;18.20;;;7.10;;
61764;SDS011;50188;48.114;-1.388;2022-08-25T02:09:25;9.75;;;7.18;;
61764;SDS011;50188;48.114;-1.388;2022-08-25T02:11:51;8.93;;;7.63;;
61764;SDS011;50188;48.114;-1.388;2022-08-25T02:14:17;13.93;;;11.88;;
61764;SDS011;50188;48.114;-1.388;2022-08-25T02:16:45;13.57;;;12.38;;
61764;SDS011;50188;48.114;-1.388;2022-08-25T02:19:13;14.82;;;12.15;;
61764;SDS011;50188;48.114;-1.388;2022-08-25T02:21:40;13.00;;;11.43;;
61764;SDS011;50188;48.114;-1.388;2022-08-25T02:24:06;12.30;;;11.20;;
61764;SDS011;50188;48.114;-1.388;2022-08-25T02:26:33;14.90;;;13.57;;
61764;SDS011;50188;48.114;-1.388;2022-08-25T02:29:00;15.48;;;14.02;;
61764;SDS011;50188;48.114;-1.388;2022-08-25T02:31:26;15.02;;;13.63;;
61764;SDS011;50188;48.114;-1.388;2022-08-25T02:33:53;15.13;;;13.55;;
61764;SDS011;50188;48.114;-1.388;2022-08-25T02:36:19;18.38;;;15.35;;
61764;SDS011;50188;48.114;-1.388;2022-08-25T02:38:45;15.52;;;13.82;;
61764;SDS011;50188;48.114;-1.388;2022-08-25T02:41:15;15.47;;;13.87;;
61764;SDS011;50188;48.114;-1.388;2022-08-25T02:43:44;17.73;;;15.65;;
61764;SDS011;50188;48.114;-1.388;2022-08-25T02:46:13;15.65;;;13.63;;
61764;SDS011;50188;48.114;-1.388;2022-08-25T02:48:40;15.15;;;13.65;;
61764;SDS011;50188;48.114;-1.388;2022-08-25T02:51:08;22.23;;;14.38;;
61764;SDS011;50188;48.114;-1.388;2022-08-25T02:53:35;15.40;;;13.32;;
61764;SDS011;50188;48.114;-1.388;2022-08-25T02:56:03;18.27;;;14.88;;
61764;SDS011;50188;48.114;-1.388;2022-08-25T02:58:35;16.05;;;13.55;;
61764;SDS011;50188;48.114;-1.388;2022-08-25T03:01:02;15.30;;;13.45;;
61764;SDS011;50188;48.114;-1.388;2022-08-25T03:03:28;23.48;;;13.77;;
61764;SDS011;50188;48.114;-1.388;2022-08-25T03:05:54;15.55;;;12.50;;
61764;SDS011;50188;48.114;-1.388;2022-08-25T03:08:21;12.30;;;11.15;;
61764;SDS011;50188;48.114;-1.388;2022-08-25T03:10:47;13.82;;;11.35;;
61764;SDS011;50188;48.114;-1.388;2022-08-25T03:13:12;11.18;;;10.07;;
61764;SDS011;50188;48.114;-1.388;2022-08-25T03:15:38;14.48;;;9.70;;
61764;SDS011;50188;48.114;-1.388;2022-08-25T03:18:06;13.57;;;10.35;;
61764;SDS011;50188;48.114;-1.388;2022-08-25T03:20:33;10.00;;;8.73;;
61764;SDS011;50188;48.114;-1.388;2022-08-25T03:23:00;9.85;;;8.27;;
61764;SDS011;50188;48.114;-1.388;2022-08-25T03:25:27;8.65;;;7.68;;
61764;SDS011;50188;48.114;-1.388;2022-08-25T03:28:12;7.50;;;6.75;;
61764;SDS011;50188;48.114;-1.388;2022-08-25T03:30:39;9.27;;;7.55;;
61764;SDS011;50188;48.114;-1.388;2022-08-25T03:33:05;9.90;;;8.20;;
61764;SDS011;50188;48.114;-1.388;2022-08-25T03:35:30;8.85;;;8.00;;
61764;SDS011;50188;48.114;-1.388;2022-08-25T03:37:56;7.03;;;6.43;;
61764;SDS011;50188;48.114;-1.388;2022-08-25T03:40:23;7.72;;;7.00;;
61764;SDS011;50188;48.114;-1.388;2022-08-25T03:42:49;9.52;;;7.13;;
61764;SDS011;50188;48.114;-1.388;2022-08-25T03:45:15;7.20;;;6.50;;
61764;SDS011;50188;48.114;-1.388;2022-08-25T03:47:44;8.93;;;7.53;;
61764;SDS011;50188;48.114;-1.388;2022-08-25T03:50:11;9.27;;;6.63;;
61764;SDS011;50188;48.114;-1.388;2022-08-25T03:52:37;9.98;;;6.32;;
61764;SDS011;50188;48.114;-1.388;2022-08-25T03:55:04;9.43;;;6.68;;
61764;SDS011;50188;48.114;-1.388;2022-08-25T03:57:31;6.38;;;5.80;;
61764;SDS011;50188;48.114;-1.388;2022-08-25T03:59:58;9.27;;;5.45;;
61764;SDS011;50188;48.114;-1.388;2022-08-25T04:02:23;9.13;;;4.78;;
61764;SDS011;50188;48.114;-1.388;2022-08-25T04:04:49;8.95;;;6.13;;
61764;SDS011;50188;48.114;-1.388;2022-08-25T04:07:15;6.13;;;5.57;;
61764;SDS011;50188;48.114;-1.388;2022-08-25T04:09:41;8.80;;;5.72;;
61764;SDS011;50188;48.114;-1.388;2022-08-25T04:12:07;17.45;;;6.80;;
61764;SDS011;50188;48.114;-1.388;2022-08-25T04:14:32;7.82;;;5.15;;
61764;SDS011;50188;48.114;-1.388;2022-08-25T04:16:58;11.73;;;6.35;;
61764;SDS011;50188;48.114;-1.388;2022-08-25T04:19:23;11.93;;;5.22;;
61764;SDS011;50188;48.114;-1.388;2022-08-25T04:21:50;4.88;;;4.38;;
61764;SDS011;50188;48.114;-1.388;2022-08-25T04:24:16;11.40;;;5.80;;
61764;SDS011;50188;48.114;-1.388;2022-08-25T04:26:44;12.70;;;6.30;;
61764;SDS011;50188;48.114;-1.388;2022-08-25T04:29:11;8.40;;;4.63;;
61764;SDS011;50188;48.114;-1.388;2022-08-25T04:31:39;12.77;;;4.70;;
61764;SDS011;50188;48.114;-1.388;2022-08-25T04:34:07;6.60;;;4.63;;
61764;SDS011;50188;48.114;-1.388;2022-08-25T04:36:34;10.77;;;4.20;;
61764;SDS011;50188;48.114;-1.388;2022-08-25T04:38:59;7.07;;;3.95;;
61764;SDS011;50188;48.114;-1.388;2022-08-25T04:41:25;9.77;;;5.05;;
61764;SDS011;50188;48.114;-1.388;2022-08-25T04:43:55;15.75;;;5.18;;
61764;SDS011;50188;48.114;-1.388;2022-08-25T04:46:24;9.65;;;4.20;;
61764;SDS011;50188;48.114;-1.388;2022-08-25T04:48:51;7.00;;;3.85;;
61764;SDS011;50188;48.114;-1.388;2022-08-25T04:51:21;10.48;;;4.60;;
61764;SDS011;50188;48.114;-1.388;2022-08-25T04:53:49;12.13;;;4.22;;
61764;SDS011;50188;48.114;-1.388;2022-08-25T04:56:17;6.70;;;2.92;;
61764;SDS011;50188;48.114;-1.388;2022-08-25T04:58:45;4.35;;;2.88;;
61764;SDS011;50188;48.114;-1.388;2022-08-25T05:01:12;8.50;;;3.75;;
61764;SDS011;50188;48.114;-1.388;2022-08-25T05:03:41;8.88;;;3.63;;
61764;SDS011;50188;48.114;-1.388;2022-08-25T05:06:09;6.15;;;3.20;;
61764;SDS011;50188;48.114;-1.388;2022-08-25T05:08:35;11.07;;;4.25;;
61764;SDS011;50188;48.114;-1.388;2022-08-25T05:11:05;7.00;;;3.33;;
61764;SDS011;50188;48.114;-1.388;2022-08-25T05:13:36;6.38;;;3.45;;
61764;SDS011;50188;48.114;-1.388;2022-08-25T05:16:02;8.23;;;4.30;;
61764;SDS011;50188;48.114;-1.388;2022-08-25T05:18:30;9.23;;;3.83;;
61764;SDS011;50188;48.114;-1.388;2022-08-25T05:21:01;9.88;;;4.28;;
61764;SDS011;50188;48.114;-1.388;2022-08-25T05:23:29;6.57;;;3.83;;
61764;SDS011;50188;48.114;-1.388;2022-08-25T05:25:55;6.93;;;3.55;;
61764;SDS011;50188;48.114;-1.388;2022-08-25T05:28:26;9.35;;;3.28;;
61764;SDS011;50188;48.114;-1.388;2022-08-25T05:30:56;3.95;;;2.60;;
61764;SDS011;50188;48.114;-1.388;2022-08-25T05:33:23;4.28;;;3.38;;
61764;SDS011;50188;48.114;-1.388;2022-08-25T05:35:48;7.28;;;4.18;;
61764;SDS011;50188;48.114;-1.388;2022-08-25T05:38:14;12.23;;;4.10;;
61764;SDS011;50188;48.114;-1.388;2022-08-25T05:40:40;7.80;;;3.08;;
61764;SDS011;50188;48.114;-1.388;2022-08-25T05:43:05;7.53;;;4.20;;
61764;SDS011;50188;48.114;-1.388;2022-08-25T05:45:31;6.75;;;3.00;;
61764;SDS011;50188;48.114;-1.388;2022-08-25T05:47:56;6.97;;;3.30;;
61764;SDS011;50188;48.114;-1.388;2022-08-25T05:50:22;4.85;;;3.10;;
61764;SDS011;50188;48.114;-1.388;2022-08-25T05:52:48;5.53;;;2.53;;
61764;SDS011;50188;48.114;-1.388;2022-08-25T05:55:14;9.48;;;4.03;;
61764;SDS011;50188;48.114;-1.388;2022-08-25T05:57:40;10.23;;;3.42;;
61764;SDS011;50188;48.114;-1.388;2022-08-25T06:00:06;8.20;;;3.17;;
61764;SDS011;50188;48.114;-1.388;2022-08-25T06:02:32;4.65;;;3.10;;
61764;SDS011;50188;48.114;-1.388;2022-08-25T06:05:11;7.65;;;3.40;;
61764;SDS011;50188;48.114;-1.388;2022-08-25T06:07:39;7.72;;;3.92;;
61764;SDS011;50188;48.114;-1.388;2022-08-25T06:10:05;7.47;;;2.78;;
61764;SDS011;50188;48.114;-1.388;2022-08-25T06:12:35;4.30;;;2.72;;
61764;SDS011;50188;48.114;-1.388;2022-08-25T06:15:02;5.82;;;3.17;;
61764;SDS011;50188;48.114;-1.388;2022-08-25T06:17:28;13.45;;;3.35;;
61764;SDS011;50188;48.114;-1.388;2022-08-25T06:19:55;10.23;;;3.47;;
61764;SDS011;50188;48.114;-1.388;2022-08-25T06:22:20;4.75;;;2.63;;
61764;SDS011;50188;48.114;-1.388;2022-08-25T06:24:46;5.40;;;2.72;;
61764;SDS011;50188;48.114;-1.388;2022-08-25T06:27:12;7.15;;;3.00;;
61764;SDS011;50188;48.114;-1.388;2022-08-25T06:29:38;8.23;;;3.05;;
61764;SDS011;50188;48.114;-1.388;2022-08-25T06:32:04;5.57;;;2.88;;
61764;SDS011;50188;48.114;-1.388;2022-08-25T06:34:30;5.55;;;2.85;;
61764;SDS011;50188;48.114;-1.388;2022-08-25T06:36:55;9.95;;;3.17;;
61764;SDS011;50188;48.114;-1.388;2022-08-25T06:39:21;4.93;;;2.83;;
61764;SDS011;50188;48.114;-1.388;2022-08-25T06:41:52;4.93;;;2.60;;
61764;SDS011;50188;48.114;-1.388;2022-08-25T06:46:54;6.57;;;2.30;;
61764;SDS011;50188;48.114;-1.388;2022-08-25T06:49:20;8.43;;;3.92;;
61764;SDS011;50188;48.114;-1.388;2022-08-25T06:51:46;7.63;;;2.75;;
61764;SDS011;50188;48.114;-1.388;2022-08-25T06:54:11;4.50;;;3.08;;
61764;SDS011;50188;48.114;-1.388;2022-08-25T06:56:40;6.47;;;2.58;;
61764;SDS011;50188;48.114;-1.388;2022-08-25T06:59:06;5.43;;;2.72;;
61764;SDS011;50188;48.114;-1.388;2022-08-25T07:01:33;10.43;;;3.17;;
61764;SDS011;50188;48.114;-1.388;2022-08-25T07:04:00;6.95;;;2.58;;
61764;SDS011;50188;48.114;-1.388;2022-08-25T07:06:29;16.13;;;3.10;;
61764;SDS011;50188;48.114;-1.388;2022-08-25T07:08:56;7.93;;;2.38;;
61764;SDS011;50188;48.114;-1.388;2022-08-25T07:11:22;4.70;;;2.33;;
61764;SDS011;50188;48.114;-1.388;2022-08-25T07:13:49;4.45;;;2.25;;
61764;SDS011;50188;48.114;-1.388;2022-08-25T07:16:15;5.80;;;2.42;;
61764;SDS011;50188;48.114;-1.388;2022-08-25T07:18:43;5.90;;;2.50;;
61764;SDS011;50188;48.114;-1.388;2022-08-25T07:21:09;5.47;;;2.20;;
61764;SDS011;50188;48.114;-1.388;2022-08-25T07:23:36;4.53;;;2.22;;
61764;SDS011;50188;48.114;-1.388;2022-08-25T07:26:16;3.97;;;1.45;;
61764;SDS011;50188;48.114;-1.388;2022-08-25T07:28:44;3.63;;;1.70;;
61764;SDS011;50188;48.114;-1.388;2022-08-25T07:31:10;1.98;;;1.73;;
61764;SDS011;50188;48.114;-1.388;2022-08-25T07:33:36;3.28;;;1.48;;
61764;SDS011;50188;48.114;-1.388;2022-08-25T07:36:02;6.53;;;3.33;;
61764;SDS011;50188;48.114;-1.388;2022-08-25T07:38:28;4.60;;;1.95;;
61764;SDS011;50188;48.114;-1.388;2022-08-25T07:41:01;9.13;;;1.92;;
61764;SDS011;50188;48.114;-1.388;2022-08-25T07:43:27;4.05;;;1.65;;
61764;SDS011;50188;48.114;-1.388;2022-08-25T07:45:53;4.53;;;1.30;;
61764;SDS011;50188;48.114;-1.388;2022-08-25T07:48:19;4.05;;;1.63;;
61764;SDS011;50188;48.114;-1.388;2022-08-25T07:50:45;3.58;;;1.73;;
61764;SDS011;50188;48.114;-1.388;2022-08-25T07:53:12;2.30;;;1.55;;
61764;SDS011;50188;48.114;-1.388;2022-08-25T07:55:39;3.97;;;1.58;;
61764;SDS011;50188;48.114;-1.388;2022-08-25T07:58:06;4.15;;;1.35;;
61764;SDS011;50188;48.114;-1.388;2022-08-25T08:00:33;7.88;;;1.98;;
61764;SDS011;50188;48.114;-1.388;2022-08-25T08:03:02;3.65;;;1.63;;
61764;SDS011;50188;48.114;-1.388;2022-08-25T08:05:30;3.22;;;1.42;;
61764;SDS011;50188;48.114;-1.388;2022-08-25T08:07:56;2.30;;;1.60;;
61764;SDS011;50188;48.114;-1.388;2022-08-25T08:10:21;6.45;;;1.63;;
61764;SDS011;50188;48.114;-1.388;2022-08-25T08:12:49;2.53;;;1.63;;
61764;SDS011;50188;48.114;-1.388;2022-08-25T08:15:15;5.75;;;1.45;;
61764;SDS011;50188;48.114;-1.388;2022-08-25T08:17:41;4.00;;;1.92;;
61764;SDS011;50188;48.114;-1.388;2022-08-25T08:20:08;4.57;;;1.60;;
61764;SDS011;50188;48.114;-1.388;2022-08-25T08:22:35;4.03;;;1.40;;
61764;SDS011;50188;48.114;-1.388;2022-08-25T08:25:03;5.07;;;2.38;;
61764;SDS011;50188;48.114;-1.388;2022-08-25T08:27:29;1.38;;;1.27;;
61764;SDS011;50188;48.114;-1.388;2022-08-25T08:29:55;2.25;;;1.35;;
61764;SDS011;50188;48.114;-1.388;2022-08-25T08:32:20;3.78;;;1.83;;
61764;SDS011;50188;48.114;-1.388;2022-08-25T08:34:46;8.45;;;2.03;;
61764;SDS011;50188;48.114;-1.388;2022-08-25T08:37:13;9.15;;;2.05;;
61764;SDS011;50188;48.114;-1.388;2022-08-25T08:39:39;6.57;;;1.88;;
61764;SDS011;50188;48.114;-1.388;2022-08-25T08:42:10;2.60;;;1.55;;
61764;SDS011;50188;48.114;-1.388;2022-08-25T08:45:04;4.30;;;2.10;;
61764;SDS011;50188;48.114;-1.388;2022-08-25T08:47:45;2.63;;;1.00;;
61764;SDS011;50188;48.114;-1.388;2022-08-25T08:50:29;4.68;;;1.42;;
61764;SDS011;50188;48.114;-1.388;2022-08-25T08:53:10;4.88;;;1.38;;
61764;SDS011;50188;48.114;-1.388;2022-08-25T08:55:47;3.35;;;1.40;;
61764;SDS011;50188;48.114;-1.388;2022-08-25T08:58:20;2.80;;;1.90;;
61764;SDS011;50188;48.114;-1.388;2022-08-25T09:00:49;8.43;;;2.00;;
61764;SDS011;50188;48.114;-1.388;2022-08-25T09:03:27;4.45;;;1.98;;
61764;SDS011;50188;48.114;-1.388;2022-08-25T09:06:04;3.50;;;1.40;;
61764;SDS011;50188;48.114;-1.388;2022-08-25T09:08:35;2.80;;;1.75;;
61764;SDS011;50188;48.114;-1.388;2022-08-25T09:11:06;6.95;;;1.42;;
61764;SDS011;50188;48.114;-1.388;2022-08-25T09:19:34;1.27;;;1.08;;
61764;SDS011;50188;48.114;-1.388;2022-08-25T09:25:23;5.55;;;1.85;;
61764;SDS011;50188;48.114;-1.388;2022-08-25T09:28:35;1.42;;;1.30;;
61764;SDS011;50188;48.114;-1.388;2022-08-25T09:31:20;1.50;;;1.40;;
61764;SDS011;50188;48.114;-1.388;2022-08-25T09:33:49;1.98;;;1.23;;
61764;SDS011;50188;48.114;-1.388;2022-08-25T09:36:19;1.75;;;1.65;;
61764;SDS011;50188;48.114;-1.388;2022-08-25T09:38:45;1.00;;;1.00;;
61764;SDS011;50188;48.114;-1.388;2022-08-25T09:41:10;3.60;;;1.52;;
61764;SDS011;50188;48.114;-1.388;2022-08-25T09:43:42;1.70;;;1.50;;
61764;SDS011;50188;48.114;-1.388;2022-08-25T09:46:22;3.42;;;2.20;;
61764;SDS011;50188;48.114;-1.388;2022-08-25T09:48:54;2.45;;;2.25;;
61764;SDS011;50188;48.114;-1.388;2022-08-25T09:51:26;2.20;;;1.98;;
61764;SDS011;50188;48.114;-1.388;2022-08-25T09:53:54;3.25;;;2.78;;
61764;SDS011;50188;48.114;-1.388;2022-08-25T09:56:24;1.38;;;1.38;;
61764;SDS011;50188;48.114;-1.388;2022-08-25T09:58:53;1.45;;;1.35;;
61764;SDS011;50188;48.114;-1.388;2022-08-25T10:01:24;1.70;;;1.60;;
61764;SDS011;50188;48.114;-1.388;2022-08-25T10:03:57;2.70;;;2.05;;
61764;SDS011;50188;48.114;-1.388;2022-08-25T10:06:26;4.22;;;3.95;;
61764;SDS011;50188;48.114;-1.388;2022-08-25T10:09:05;5.97;;;5.57;;
61764;SDS011;50188;48.114;-1.388;2022-08-25T10:11:40;5.50;;;5.00;;
61764;SDS011;50188;48.114;-1.388;2022-08-25T10:14:20;6.60;;;6.10;;
61764;SDS011;50188;48.114;-1.388;2022-08-25T10:17:13;5.20;;;4.90;;
61764;SDS011;50188;48.114;-1.388;2022-08-25T10:19:41;3.30;;;3.20;;
61764;SDS011;50188;48.114;-1.388;2022-08-25T10:22:09;2.38;;;2.28;;
61764;SDS011;50188;48.114;-1.388;2022-08-25T10:24:44;2.92;;;2.30;;
61764;SDS011;50188;48.114;-1.388;2022-08-25T10:27:21;2.83;;;2.58;;
61764;SDS011;50188;48.114;-1.388;2022-08-25T10:30:22;2.00;;;1.90;;
61764;SDS011;50188;48.114;-1.388;2022-08-25T10:33:08;1.52;;;1.52;;
61764;SDS011;50188;48.114;-1.388;2022-08-25T10:36:03;1.33;;;1.20;;
61764;SDS011;50188;48.114;-1.388;2022-08-25T10:38:45;0.82;;;0.82;;
61764;SDS011;50188;48.114;-1.388;2022-08-25T10:44:32;1.20;;;1.10;;
61764;SDS011;50188;48.114;-1.388;2022-08-25T10:47:30;0.73;;;0.73;;
61764;SDS011;50188;48.114;-1.388;2022-08-25T10:50:28;0.60;;;0.60;;
61764;SDS011;50188;48.114;-1.388;2022-08-25T10:53:43;0.43;;;0.40;;
61764;SDS011;50188;48.114;-1.388;2022-08-25T10:56:00;0.60;;;0.60;;
61764;SDS011;50188;48.114;-1.388;2022-08-25T10:58:47;0.73;;;0.38;;
61764;SDS011;50188;48.114;-1.388;2022-08-25T11:01:43;2.65;;;0.80;;
61764;SDS011;50188;48.114;-1.388;2022-08-25T11:04:17;0.30;;;0.30;;
61764;SDS011;50188;48.114;-1.388;2022-08-25T11:06:56;4.13;;;0.73;;
61764;SDS011;50188;48.114;-1.388;2022-08-25T11:09:28;0.30;;;0.30;;
61764;SDS011;50188;48.114;-1.388;2022-08-25T11:12:25;0.40;;;0.40;;
61764;SDS011;50188;48.114;-1.388;2022-08-25T11:15:06;0.85;;;0.50;;
61764;SDS011;50188;48.114;-1.388;2022-08-25T11:17:48;0.30;;;0.30;;
61764;SDS011;50188;48.114;-1.388;2022-08-25T11:20:26;0.45;;;0.45;;
61764;SDS011;50188;48.114;-1.388;2022-08-25T11:25:52;2.05;;;0.45;;
61764;SDS011;50188;48.114;-1.388;2022-08-25T11:31:21;0.63;;;0.30;;
61764;SDS011;50188;48.114;-1.388;2022-08-25T11:33:49;0.47;;;0.30;;
61764;SDS011;50188;48.114;-1.388;2022-08-25T11:41:45;0.40;;;0.40;;
61764;SDS011;50188;48.114;-1.388;2022-08-25T11:47:46;0.20;;;0.20;;
61764;SDS011;50188;48.114;-1.388;2022-08-25T11:50:29;0.20;;;0.20;;
61764;SDS011;50188;48.114;-1.388;2022-08-25T11:53:15;2.53;;;0.47;;
61764;SDS011;50188;48.114;-1.388;2022-08-25T11:55:54;0.52;;;0.40;;
61764;SDS011;50188;48.114;-1.388;2022-08-25T11:58:45;2.60;;;0.30;;
61764;SDS011;50188;48.114;-1.388;2022-08-25T12:04:31;0.20;;;0.20;;
61764;SDS011;50188;48.114;-1.388;2022-08-25T12:07:17;1.30;;;0.30;;
61764;SDS011;50188;48.114;-1.388;2022-08-25T12:10:07;0.45;;;0.40;;
61764;SDS011;50188;48.114;-1.388;2022-08-25T12:12:54;3.08;;;0.73;;
61764;SDS011;50188;48.114;-1.388;2022-08-25T12:15:23;0.57;;;0.30;;
61764;SDS011;50188;48.114;-1.388;2022-08-25T12:18:07;0.45;;;0.20;;
61764;SDS011;50188;48.114;-1.388;2022-08-25T12:23:38;0.82;;;0.17;;
61764;SDS011;50188;48.114;-1.388;2022-08-25T12:26:24;3.00;;;0.60;;
61764;SDS011;50188;48.114;-1.388;2022-08-25T12:29:10;2.53;;;0.40;;
61764;SDS011;50188;48.114;-1.388;2022-08-25T12:31:58;1.17;;;0.28;;
61764;SDS011;50188;48.114;-1.388;2022-08-25T12:34:46;0.55;;;0.30;;
61764;SDS011;50188;48.114;-1.388;2022-08-25T12:37:39;0.20;;;0.20;;
61764;SDS011;50188;48.114;-1.388;2022-08-25T12:40:31;0.28;;;0.28;;
61764;SDS011;50188;48.114;-1.388;2022-08-25T12:43:11;0.50;;;0.30;;
61764;SDS011;50188;48.114;-1.388;2022-08-25T12:45:49;4.03;;;0.50;;
61764;SDS011;50188;48.114;-1.388;2022-08-25T12:48:39;0.30;;;0.30;;
61764;SDS011;50188;48.114;-1.388;2022-08-25T12:51:09;0.85;;;0.40;;
61764;SDS011;50188;48.114;-1.388;2022-08-25T12:53:42;1.25;;;0.47;;
61764;SDS011;50188;48.114;-1.388;2022-08-25T12:56:18;1.33;;;0.60;;
61764;SDS011;50188;48.114;-1.388;2022-08-25T12:58:54;0.28;;;0.15;;
61764;SDS011;50188;48.114;-1.388;2022-08-25T13:01:56;2.63;;;0.38;;
61764;SDS011;50188;48.114;-1.388;2022-08-25T13:04:33;0.88;;;0.40;;
61764;SDS011;50188;48.114;-1.388;2022-08-25T13:07:39;2.05;;;0.40;;
61764;SDS011;50188;48.114;-1.388;2022-08-25T13:13:18;1.23;;;0.70;;
61764;SDS011;50188;48.114;-1.388;2022-08-25T13:16:02;3.78;;;0.82;;
61764;SDS011;50188;48.114;-1.388;2022-08-25T13:18:46;2.22;;;0.65;;
61764;SDS011;50188;48.114;-1.388;2022-08-25T13:21:19;5.28;;;0.57;;
61764;SDS011;50188;48.114;-1.388;2022-08-25T13:23:49;1.10;;;0.47;;
61764;SDS011;50188;48.114;-1.388;2022-08-25T13:26:22;0.90;;;0.52;;
61764;SDS011;50188;48.114;-1.388;2022-08-25T13:28:56;1.23;;;0.60;;
61764;SDS011;50188;48.114;-1.388;2022-08-25T13:31:36;1.77;;;0.90;;
61764;SDS011;50188;48.114;-1.388;2022-08-25T13:34:16;2.80;;;0.63;;
61764;SDS011;50188;48.114;-1.388;2022-08-25T13:36:44;2.90;;;0.70;;
61764;SDS011;50188;48.114;-1.388;2022-08-25T13:39:31;1.48;;;0.90;;
61764;SDS011;50188;48.114;-1.388;2022-08-25T13:41:58;0.85;;;0.50;;
61764;SDS011;50188;48.114;-1.388;2022-08-25T13:44:27;2.42;;;0.98;;
61764;SDS011;50188;48.114;-1.388;2022-08-25T13:47:08;1.98;;;0.57;;
61764;SDS011;50188;48.114;-1.388;2022-08-25T13:49:36;2.05;;;1.20;;
61764;SDS011;50188;48.114;-1.388;2022-08-25T13:52:04;3.35;;;0.90;;
61764;SDS011;50188;48.114;-1.388;2022-08-25T13:54:34;2.40;;;1.02;;
61764;SDS011;50188;48.114;-1.388;2022-08-25T13:57:10;4.07;;;1.10;;
61764;SDS011;50188;48.114;-1.388;2022-08-25T13:59:40;1.38;;;1.20;;
61764;SDS011;50188;48.114;-1.388;2022-08-25T14:02:09;3.22;;;1.70;;
61764;SDS011;50188;48.114;-1.388;2022-08-25T14:04:44;1.10;;;1.00;;
61764;SDS011;50188;48.114;-1.388;2022-08-25T14:09:56;4.18;;;1.20;;
61764;SDS011;50188;48.114;-1.388;2022-08-25T14:12:25;7.70;;;1.70;;
61764;SDS011;50188;48.114;-1.388;2022-08-25T14:15:05;1.38;;;1.10;;
61764;SDS011;50188;48.114;-1.388;2022-08-25T14:17:34;1.30;;;1.10;;
61764;SDS011;50188;48.114;-1.388;2022-08-25T14:20:02;0.98;;;0.98;;
61764;SDS011;50188;48.114;-1.388;2022-08-25T14:22:29;4.10;;;1.10;;
61764;SDS011;50188;48.114;-1.388;2022-08-25T14:24:55;4.78;;;1.30;;
61764;SDS011;50188;48.114;-1.388;2022-08-25T14:27:21;1.23;;;0.80;;
61764;SDS011;50188;48.114;-1.388;2022-08-25T14:29:47;1.60;;;0.90;;
61764;SDS011;50188;48.114;-1.388;2022-08-25T14:32:14;4.40;;;1.77;;
61764;SDS011;50188;48.114;-1.388;2022-08-25T14:34:40;1.27;;;0.95;;
61764;SDS011;50188;48.114;-1.388;2022-08-25T14:37:17;2.33;;;0.80;;
61764;SDS011;50188;48.114;-1.388;2022-08-25T14:39:44;1.23;;;1.13;;
61764;SDS011;50188;48.114;-1.388;2022-08-25T14:42:10;1.23;;;1.08;;
61764;SDS011;50188;48.114;-1.388;2022-08-25T14:44:37;2.28;;;1.33;;
61764;SDS011;50188;48.114;-1.388;2022-08-25T14:47:03;3.35;;;1.10;;
61764;SDS011;50188;48.114;-1.388;2022-08-25T14:49:31;3.38;;;1.23;;
61764;SDS011;50188;48.114;-1.388;2022-08-25T14:52:06;1.52;;;1.42;;
61764;SDS011;50188;48.114;-1.388;2022-08-25T14:54:34;4.25;;;1.42;;
61764;SDS011;50188;48.114;-1.388;2022-08-25T14:57:00;2.33;;;1.70;;
61764;SDS011;50188;48.114;-1.388;2022-08-25T14:59:25;1.08;;;0.85;;
61764;SDS011;50188;48.114;-1.388;2022-08-25T15:01:51;1.35;;;1.10;;
61764;SDS011;50188;48.114;-1.388;2022-08-25T15:04:19;1.90;;;1.40;;
61764;SDS011;50188;48.114;-1.388;2022-08-25T15:06:48;3.15;;;1.48;;
61764;SDS011;50188;48.114;-1.388;2022-08-25T15:09:17;2.13;;;1.35;;
61764;SDS011;50188;48.114;-1.388;2022-08-25T15:11:44;4.43;;;1.25;;
61764;SDS011;50188;48.114;-1.388;2022-08-25T15:14:12;2.75;;;1.80;;
61764;SDS011;50188;48.114;-1.388;2022-08-25T15:16:41;4.22;;;1.27;;
61764;SDS011;50188;48.114;-1.388;2022-08-25T15:19:21;3.08;;;2.08;;
61764;SDS011;50188;48.114;-1.388;2022-08-25T15:21:48;5.93;;;1.70;;
61764;SDS011;50188;48.114;-1.388;2022-08-25T15:24:15;5.38;;;2.00;;
61764;SDS011;50188;48.114;-1.388;2022-08-25T15:26:43;6.28;;;1.00;;
61764;SDS011;50188;48.114;-1.388;2022-08-25T15:29:14;2.03;;;1.40;;
61764;SDS011;50188;48.114;-1.388;2022-08-25T15:31:40;2.50;;;1.67;;
61764;SDS011;50188;48.114;-1.388;2022-08-25T15:34:07;2.22;;;0.98;;
61764;SDS011;50188;48.114;-1.388;2022-08-25T15:36:33;1.73;;;1.63;;
61764;SDS011;50188;48.114;-1.388;2022-08-25T15:39:00;2.55;;;1.60;;